Calatayud, Spain
Current Conditions -  °F | °C
As of 1:00 PM on Monday 24 Nov 2014 (Local Time) from LEZG Reporting Station
Scattered Clouds Scattered Clouds  
Wind Chill: 61°   Ceiling: Unl
Heat Index: 61°   Visibility: 6mi
Dew Point: 54°   Wind: 1mph
Humidity: 77%   Direction: NA
Pressure: 30.06"   Gusts: NA
Location:  41.35°N, 1.65°W
Report Text: LEZG 241200Z VRB01KT 9999 FEW028 SCT075 16/12 Q1018
Loading
Personal Weather Stations






























Interactive Weather Map New forecast layout! Learn more

10-Day Weather Forecast

Advertisements
Track Severe Weather on mobile